Time;durP1;ratioP1;P1;durP2;ratioP2;P2;SDS_P1;SDS_P2;PMS_P1;PMS_P2;Temp;Humidity;BMP_temperature;BMP_pressure;BME280_temperature;BME280_humidity;BME280_pressure;Samples;Min_cycle;Max_cycle;Signal;HPM_P1;HPM_P2
2024/01/13 00:01:58;;;;;;;142.20;45.30;;;;;;;1.74;100.00;102540.28;5073688;28;20209;-70
2024/01/13 00:04:24;;;;;;;158.47;47.13;;;;;;;1.74;100.00;102533.22;5073401;28;20186;-70
2024/01/13 00:06:51;;;;;;;155.10;46.83;;;;;;;1.65;100.00;102528.28;5073665;28;20178;-70
2024/01/13 00:09:17;;;;;;;162.83;49.73;;;;;;;1.67;100.00;102523.78;5073180;28;20242;-70
2024/01/13 00:11:44;;;;;;;172.37;46.70;;;;;;;1.77;100.00;102527.84;5073351;28;20183;-70
2024/01/13 00:14:10;;;;;;;171.47;49.00;;;;;;;1.82;100.00;102525.06;5073555;28;20191;-70
2024/01/13 00:16:37;;;;;;;152.83;47.33;;;;;;;1.68;100.00;102514.13;5073275;28;20212;-70
2024/01/13 00:19:03;;;;;;;148.97;48.03;;;;;;;1.80;100.00;102511.06;5073131;28;20241;-70
2024/01/13 00:21:30;;;;;;;143.50;48.17;;;;;;;1.74;100.00;102514.75;5073739;28;20179;-70
2024/01/13 00:23:56;;;;;;;126.57;43.43;;;;;;;1.73;100.00;102505.16;5073747;28;20545;-70
2024/01/13 00:26:23;;;;;;;137.17;46.97;;;;;;;1.82;100.00;102502.16;5073476;28;20210;-70
2024/01/13 00:28:50;;;;;;;140.03;44.07;;;;;;;1.82;100.00;102509.25;5073123;28;20210;-70
2024/01/13 00:31:16;;;;;;;132.13;44.47;;;;;;;1.84;100.00;102500.34;5073637;28;20249;-70
2024/01/13 00:33:43;;;;;;;135.37;45.87;;;;;;;1.78;100.00;102500.56;5071433;28;20201;-70
2024/01/13 00:36:10;;;;;;;138.73;47.53;;;;;;;1.97;100.00;102494.66;5072837;28;20195;-70
2024/01/13 00:38:37;;;;;;;129.43;45.00;;;;;;;1.95;100.00;102497.38;5073288;28;20616;-70
2024/01/13 00:41:05;;;;;;;136.50;47.63;;;;;;;1.90;100.00;102488.75;5073410;28;20545;-70
2024/01/13 00:43:34;;;;;;;123.10;45.50;;;;;;;1.80;100.00;102482.06;5072826;28;20199;-70
2024/01/13 00:46:00;;;;;;;148.00;48.47;;;;;;;1.78;100.00;102483.91;5073290;28;20515;-70
2024/01/13 00:48:26;;;;;;;138.80;48.30;;;;;;;1.76;100.00;102491.84;5072751;28;20207;-70
2024/01/13 00:51:08;;;;;;;151.67;48.00;;;;;;;1.70;100.00;102488.53;5072788;28;20541;-70
2024/01/13 00:53:36;;;;;;;136.70;50.87;;;;;;;1.77;100.00;102484.81;5072764;28;20187;-70
2024/01/13 00:56:03;;;;;;;138.27;50.77;;;;;;;1.79;100.00;102486.47;5072728;28;20197;-70
2024/01/13 00:58:30;;;;;;;136.10;49.37;;;;;;;1.72;100.00;102481.47;5072588;28;20206;-70
2024/01/13 01:01:09;;;;;;;149.57;46.83;;;;;;;1.74;100.00;102477.00;5073261;28;20271;-70
2024/01/13 01:03:37;;;;;;;147.27;50.63;;;;;;;1.82;100.00;102472.34;5073189;28;20183;-70
2024/01/13 01:06:04;;;;;;;138.07;48.73;;;;;;;1.77;100.00;102474.25;5072601;28;20190;-70
2024/01/13 01:08:31;;;;;;;138.93;47.60;;;;;;;1.70;100.00;102476.22;5072362;28;20688;-70
2024/01/13 01:11:05;;;;;;;124.87;47.27;;;;;;;1.75;100.00;102479.56;5073122;28;20185;-70
2024/01/13 01:13:32;;;;;;;141.13;47.67;;;;;;;1.71;100.00;102472.69;5072763;28;20186;-70
2024/01/13 01:15:59;;;;;;;145.53;50.27;;;;;;;1.71;100.00;102482.38;5072511;28;20321;-70
2024/01/13 01:18:25;;;;;;;138.30;47.50;;;;;;;1.71;100.00;102475.31;5072619;28;20682;-70
2024/01/13 01:21:09;;;;;;;138.53;47.60;;;;;;;1.78;100.00;102466.28;5072588;28;20191;-70
2024/01/13 01:23:36;;;;;;;128.73;49.27;;;;;;;1.74;100.00;102455.91;5072665;28;20190;-70
2024/01/13 01:26:03;;;;;;;120.70;45.27;;;;;;;1.78;100.00;102457.53;5073150;28;20183;-70
2024/01/13 01:28:29;;;;;;;124.53;47.83;;;;;;;1.79;100.00;102459.22;5072692;28;20225;-70
2024/01/13 01:31:02;;;;;;;132.60;47.40;;;;;;;1.81;100.00;102453.00;5073149;28;20179;-70
2024/01/13 01:33:28;;;;;;;127.93;46.17;;;;;;;1.82;100.00;102451.25;5072816;28;20208;-70
2024/01/13 01:35:55;;;;;;;129.47;47.33;;;;;;;1.81;100.00;102450.38;5072790;28;20262;-70
2024/01/13 01:38:22;;;;;;;127.73;47.80;;;;;;;1.80;100.00;102458.31;5071156;28;20253;-70
2024/01/13 01:41:05;;;;;;;125.60;45.30;;;;;;;1.79;100.00;102448.69;5072464;28;20630;-70
2024/01/13 01:43:31;;;;;;;128.57;47.20;;;;;;;1.78;100.00;102450.47;5072437;28;20654;-70
2024/01/13 01:46:00;;;;;;;128.43;46.27;;;;;;;1.82;100.00;102452.06;5075674;28;20182;-70
2024/01/13 01:48:34;;;;;;;148.63;47.27;;;;;;;1.73;100.00;102457.69;5076014;28;20241;-70
2024/01/13 01:51:08;;;;;;;108.87;42.27;;;;;;;1.77;100.00;102461.94;5076177;28;20181;-70
2024/01/13 01:53:36;;;;;;;107.17;41.83;;;;;;;1.71;100.00;102456.00;5075828;28;20198;-70
2024/01/13 01:56:08;;;;;;;99.77;41.00;;;;;;;1.70;100.00;102446.38;5075780;28;20252;-70
2024/01/13 01:58:34;;;;;;;108.77;42.20;;;;;;;1.64;100.00;102454.50;5076254;28;20207;-70
2024/01/13 02:01:02;;;;;;;104.23;42.20;;;;;;;1.60;100.00;102439.72;5075688;28;20266;-70
2024/01/13 02:03:29;;;;;;;103.67;40.40;;;;;;;1.58;100.00;102438.88;5075688;28;20190;-70
2024/01/13 02:05:58;;;;;;;83.83;40.63;;;;;;;1.68;100.00;102429.75;5075644;28;20190;-70
2024/01/13 02:08:25;;;;;;;93.60;39.07;;;;;;;1.67;100.00;102426.25;5075425;28;20207;-70
2024/01/13 02:11:04;;;;;;;99.10;39.47;;;;;;;1.54;100.00;102416.19;5075556;28;20630;-70
2024/01/13 02:13:31;;;;;;;100.23;39.97;;;;;;;1.58;100.00;102423.06;5075457;28;20232;-70
2024/01/13 02:15:57;;;;;;;102.83;39.07;;;;;;;1.58;100.00;102421.28;5075444;28;20282;-70
2024/01/13 02:18:24;;;;;;;93.80;39.67;;;;;;;1.61;100.00;102418.53;5075638;28;20256;-70
2024/01/13 02:21:04;;;;;;;82.30;37.97;;;;;;;1.63;100.00;102418.50;5075307;28;20194;-70
2024/01/13 02:23:31;;;;;;;83.87;37.30;;;;;;;1.69;100.00;102420.94;5075527;28;20527;-70
2024/01/13 02:25:57;;;;;;;99.30;38.43;;;;;;;1.66;100.00;102416.63;5075214;28;20191;-70
2024/01/13 02:28:24;;;;;;;95.93;37.10;;;;;;;1.68;100.00;102408.66;5075347;28;20211;-70
2024/01/13 02:31:08;;;;;;;80.73;35.90;;;;;;;1.66;100.00;102411.34;5075190;28;20185;-70
2024/01/13 02:33:34;;;;;;;84.97;36.83;;;;;;;1.64;100.00;102399.16;5075144;28;20207;-70
2024/01/13 02:36:01;;;;;;;95.17;35.60;;;;;;;1.67;100.00;102407.81;5075368;28;20183;-70
2024/01/13 02:38:28;;;;;;;71.13;33.80;;;;;;;1.69;100.00;102392.81;5075295;28;20202;-70
2024/01/13 02:41:03;;;;;;;86.60;35.47;;;;;;;1.67;100.00;102397.25;5075547;28;20178;-70
2024/01/13 02:43:30;;;;;;;84.97;34.83;;;;;;;1.80;100.00;102397.69;5075252;28;20202;-70
2024/01/13 02:45:56;;;;;;;81.80;34.30;;;;;;;1.84;100.00;102399.28;5075090;28;20649;-70
2024/01/13 02:48:23;;;;;;;77.63;35.00;;;;;;;1.86;99.71;102397.47;5074648;28;20259;-70
2024/01/13 02:51:06;;;;;;;85.73;35.50;;;;;;;1.69;100.00;102395.44;5075074;28;20217;-70
2024/01/13 02:53:33;;;;;;;85.40;35.80;;;;;;;1.71;100.00;102387.47;5074985;28;20183;-70
2024/01/13 02:56:00;;;;;;;73.37;33.10;;;;;;;1.72;100.00;102381.28;5074522;28;20195;-70
2024/01/13 02:58:26;;;;;;;80.37;35.20;;;;;;;1.66;100.00;102371.81;5074685;28;20202;-70
2024/01/13 03:01:07;;;;;;;73.53;33.63;;;;;;;1.69;100.00;102363.81;5074865;28;20243;-70
2024/01/13 03:03:34;;;;;;;76.30;35.07;;;;;;;1.70;100.00;102354.97;5074474;28;20654;-70
2024/01/13 03:06:04;;;;;;;79.30;35.27;;;;;;;1.82;100.00;102358.94;5074472;28;20189;-70
2024/01/13 03:08:32;;;;;;;80.03;34.10;;;;;;;1.83;100.00;102347.47;5074275;28;20217;-70
2024/01/13 03:11:08;;;;;;;68.80;32.57;;;;;;;1.67;100.00;102344.53;5074684;28;20235;-70
2024/01/13 03:13:35;;;;;;;75.07;35.53;;;;;;;1.75;100.00;102345.13;5074852;28;20171;-70
2024/01/13 03:16:02;;;;;;;83.13;32.83;;;;;;;1.77;100.00;102340.66;5074282;28;20190;-70
2024/01/13 03:18:29;;;;;;;67.23;33.07;;;;;;;1.83;100.00;102329.00;5074092;28;20739;-70
2024/01/13 03:21:05;;;;;;;77.53;32.33;;;;;;;1.94;100.00;102326.84;5074058;28;20217;-70
2024/01/13 03:23:33;;;;;;;73.93;32.93;;;;;;;1.93;99.51;102330.41;5074317;28;20654;-70
2024/01/13 03:26:00;;;;;;;79.97;33.83;;;;;;;1.93;99.29;102327.75;5074282;28;20244;-70
2024/01/13 03:28:26;;;;;;;77.50;35.43;;;;;;;1.84;99.33;102331.59;5073914;28;20212;-70
2024/01/13 03:31:06;;;;;;;69.40;33.43;;;;;;;1.82;99.93;102328.16;5074193;28;20174;-70
2024/01/13 03:33:33;;;;;;;93.27;35.70;;;;;;;1.73;99.61;102319.75;5073838;28;20191;-70
2024/01/13 03:36:00;;;;;;;83.87;35.67;;;;;;;1.82;99.94;102316.75;5073793;28;20244;-70
2024/01/13 03:38:27;;;;;;;80.20;34.97;;;;;;;1.83;99.86;102315.81;5073704;28;20284;-70
2024/01/13 03:41:06;;;;;;;67.40;34.10;;;;;;;1.84;99.23;102315.78;5073747;28;20171;-70
2024/01/13 03:43:32;;;;;;;86.20;36.53;;;;;;;1.82;99.25;102317.59;5073618;28;20187;-70
2024/01/13 03:45:59;;;;;;;79.03;35.50;;;;;;;1.81;99.16;102313.25;5074073;28;20186;-70
2024/01/13 03:48:25;;;;;;;76.33;33.90;;;;;;;1.79;99.62;102306.31;5073434;28;20242;-70
2024/01/13 03:50:52;;;;;;;81.70;35.23;;;;;;;1.81;99.62;102300.09;5073500;28;20553;-70
2024/01/13 03:53:19;;;;;;;71.70;33.83;;;;;;;1.80;99.32;102298.34;5074033;28;20546;-70
2024/01/13 03:55:45;;;;;;;81.93;34.30;;;;;;;1.81;98.74;102302.72;5073434;28;20286;-70
2024/01/13 03:58:12;;;;;;;77.00;35.37;;;;;;;1.79;99.21;102296.63;5073277;28;20302;-70
2024/01/13 04:00:38;;;;;;;81.03;33.83;;;;;;;1.80;99.19;102297.50;5073339;28;20179;-70
2024/01/13 04:03:05;;;;;;;77.70;32.40;;;;;;;1.77;98.73;102298.47;5073313;28;20187;-70
2024/01/13 04:05:32;;;;;;;69.73;31.53;;;;;;;1.77;99.19;102300.25;5073535;28;20200;-70
2024/01/13 04:07:58;;;;;;;70.03;31.00;;;;;;;1.79;98.91;102301.91;5072720;28;20705;-70
2024/01/13 04:10:25;;;;;;;62.93;30.53;;;;;;;1.78;98.52;102304.63;5073703;28;20539;-70
2024/01/13 04:12:51;;;;;;;67.90;32.23;;;;;;;1.81;98.27;102300.09;5073421;28;20719;-70
2024/01/13 04:15:18;;;;;;;70.97;32.37;;;;;;;1.80;98.74;102301.00;5073208;28;20201;-70
2024/01/13 04:17:44;;;;;;;66.20;32.43;;;;;;;1.74;98.82;102298.56;5073266;28;20213;-70
2024/01/13 04:20:11;;;;;;;69.30;30.90;;;;;;;1.81;98.53;102297.44;5072947;28;20190;-70
2024/01/13 04:22:38;;;;;;;74.83;32.47;;;;;;;1.80;98.66;102301.00;5073150;28;20190;-70
2024/01/13 04:25:05;;;;;;;69.40;32.03;;;;;;;1.70;98.84;102294.31;5073078;28;20186;-70
2024/01/13 04:27:32;;;;;;;77.43;33.87;;;;;;;1.76;98.92;102286.22;5073528;28;20211;-70
2024/01/13 04:29:58;;;;;;;68.90;32.30;;;;;;;1.72;98.93;102275.84;5072982;28;20206;-70
2024/01/13 04:32:25;;;;;;;73.23;32.83;;;;;;;1.76;99.07;102275.66;5073039;28;20222;-70
2024/01/13 04:34:51;;;;;;;61.77;30.47;;;;;;;1.88;98.39;102276.09;5072994;28;20772;-70
2024/01/13 04:37:18;;;;;;;60.03;29.80;;;;;;;1.83;98.65;102269.22;5072918;28;20190;-70
2024/01/13 04:39:44;;;;;;;69.87;30.30;;;;;;;1.88;98.42;102263.78;5072944;28;20604;-70
2024/01/13 04:42:11;;;;;;;69.47;29.97;;;;;;;1.94;98.02;102257.41;5072956;28;20194;-70
2024/01/13 04:44:37;;;;;;;76.50;31.10;;;;;;;2.04;97.83;102256.13;5072891;28;20183;-70
2024/01/13 04:47:04;;;;;;;71.77;31.97;;;;;;;1.97;98.24;102247.59;5073200;28;20201;-70
2024/01/13 04:49:31;;;;;;;66.50;32.07;;;;;;;1.95;98.52;102244.19;5072646;28;20214;-70
2024/01/13 04:51:57;;;;;;;76.30;36.77;;;;;;;1.92;98.71;102246.06;5073096;28;20187;-70
2024/01/13 04:54:24;;;;;;;76.30;35.20;;;;;;;2.06;98.53;102251.66;5073495;28;20187;-70
2024/01/13 04:56:50;;;;;;;73.67;32.63;;;;;;;2.17;97.98;102247.69;5073102;28;20727;-70
2024/01/13 04:59:17;;;;;;;68.03;32.53;;;;;;;2.16;97.77;102250.41;5072801;28;20198;-70
2024/01/13 05:01:43;;;;;;;76.97;33.33;;;;;;;2.11;98.13;102253.22;5071660;28;20214;-70
2024/01/13 05:04:10;;;;;;;77.50;33.53;;;;;;;2.11;97.92;102258.50;5073319;28;20246;-70
2024/01/13 05:06:36;;;;;;;79.37;34.60;;;;;;;2.04;98.03;102259.63;5072795;28;20560;-70
2024/01/13 05:09:04;;;;;;;79.93;35.87;;;;;;;2.08;97.69;102244.56;5072521;28;20206;-70
2024/01/13 05:11:30;;;;;;;90.47;37.70;;;;;;;2.03;97.73;102246.53;5072496;28;20199;-70
2024/01/13 05:13:57;;;;;;;74.40;34.77;;;;;;;2.04;97.84;102245.56;5073075;28;20198;-70
2024/01/13 05:16:23;;;;;;;66.17;33.33;;;;;;;2.04;98.19;102240.31;5072871;28;20257;-70
2024/01/13 05:18:50;;;;;;;78.83;34.47;;;;;;;2.07;98.75;102248.97;5072831;28;20612;-70
2024/01/13 05:21:17;;;;;;;79.50;34.40;;;;;;;2.03;98.33;102243.88;5076360;28;20186;-70
2024/01/13 05:23:43;;;;;;;85.37;35.23;;;;;;;1.98;98.83;102244.06;5076224;28;20178;-70
2024/01/13 05:26:10;;;;;;;74.80;33.80;;;;;;;2.02;98.49;102243.03;5076217;28;20191;-70
2024/01/13 05:28:36;;;;;;;90.07;34.57;;;;;;;2.01;98.79;102243.06;5076623;28;20297;-70
2024/01/13 05:31:03;;;;;;;78.00;33.10;;;;;;;1.94;98.49;102238.97;5076096;28;20271;-70
2024/01/13 05:33:29;;;;;;;68.50;33.17;;;;;;;1.97;98.55;102238.84;5074843;28;20195;-70
2024/01/13 05:35:56;;;;;;;83.83;33.83;;;;;;;1.87;99.04;102234.84;5076034;28;20236;-70
2024/01/13 05:38:22;;;;;;;76.20;35.07;;;;;;;1.86;98.99;102239.25;5076555;28;20206;-70
2024/01/13 05:40:49;;;;;;;92.43;34.33;;;;;;;1.92;98.90;102238.16;5076239;28;20187;-70
2024/01/13 05:43:16;;;;;;;74.23;34.60;;;;;;;1.87;98.67;102235.69;5076206;28;20712;-70
2024/01/13 05:45:43;;;;;;;70.00;32.90;;;;;;;1.94;99.02;102241.59;5075954;28;20240;-70
2024/01/13 05:48:10;;;;;;;74.97;34.10;;;;;;;1.93;98.23;102242.50;5075815;28;20238;-70
2024/01/13 05:50:37;;;;;;;78.40;34.57;;;;;;;1.87;98.42;102226.94;5076046;28;20207;-70
2024/01/13 05:53:03;;;;;;;64.10;32.77;;;;;;;1.91;98.24;102229.38;5076070;28;20190;-70
2024/01/13 05:55:30;;;;;;;69.77;32.33;;;;;;;1.79;98.68;102236.00;5076358;28;20183;-70
2024/01/13 05:57:57;;;;;;;69.33;34.17;;;;;;;1.79;98.67;102224.56;5075605;28;20770;-70
2024/01/13 06:00:23;;;;;;;83.77;33.23;;;;;;;1.78;98.99;102215.81;5075634;28;20182;-70
2024/01/13 06:02:50;;;;;;;76.70;32.93;;;;;;;1.82;99.13;102212.13;5075585;28;20552;-70
2024/01/13 06:05:16;;;;;;;68.10;30.87;;;;;;;1.86;99.32;102219.94;5075582;28;20236;-70
2024/01/13 06:07:43;;;;;;;66.57;32.67;;;;;;;1.84;99.20;102225.28;5075971;28;20210;-70
2024/01/13 06:10:10;;;;;;;84.33;34.77;;;;;;;1.84;99.47;102212.94;5074558;28;20206;-70
2024/01/13 06:12:37;;;;;;;68.53;32.73;;;;;;;2.01;99.59;102208.78;5075441;28;20186;-70
2024/01/13 06:15:04;;;;;;;65.77;31.67;;;;;;;1.96;98.95;102213.38;5075445;28;20190;-70
2024/01/13 06:17:31;;;;;;;79.50;34.67;;;;;;;1.97;98.48;102213.31;5075781;28;20207;-70
2024/01/13 06:19:58;;;;;;;76.53;33.07;;;;;;;1.97;98.55;102207.19;5075187;28;20195;-70
2024/01/13 06:22:24;;;;;;;73.63;34.93;;;;;;;2.00;98.39;102207.06;5075269;28;20556;-70
2024/01/13 06:24:51;;;;;;;69.60;34.20;;;;;;;1.94;98.23;102207.31;5075242;28;20186;-70
2024/01/13 06:27:17;;;;;;;86.60;33.27;;;;;;;1.89;98.52;102211.91;5075169;28;20190;-70
2024/01/13 06:29:44;;;;;;;77.17;33.20;;;;;;;1.98;98.75;102214.19;5074908;28;20199;-70
2024/01/13 06:32:10;;;;;;;69.97;33.70;;;;;;;1.86;98.47;102206.75;5075106;28;20209;-70
2024/01/13 06:34:37;;;;;;;77.73;34.90;;;;;;;2.01;98.23;102200.88;5075165;28;20195;-70
2024/01/13 06:37:04;;;;;;;72.73;34.37;;;;;;;1.87;98.14;102182.94;5074934;28;20273;-70
2024/01/13 06:39:30;;;;;;;81.90;34.53;;;;;;;1.91;98.39;102170.53;5074854;28;20207;-70
2024/01/13 06:41:56;;;;;;;72.57;33.90;;;;;;;1.90;98.14;102155.63;5074875;28;20182;-70
2024/01/13 06:44:23;;;;;;;64.87;34.00;;;;;;;1.95;98.42;102157.16;5074849;28;20210;-70
2024/01/13 06:47:03;;;;;;;68.90;34.33;;;;;;;1.84;98.28;102149.66;5075117;28;20187;-70
2024/01/13 06:49:29;;;;;;;72.33;35.17;;;;;;;1.81;98.46;102139.25;5074595;28;20218;-70
2024/01/13 06:51:56;;;;;;;76.90;35.93;;;;;;;1.83;98.79;102147.94;5075217;28;20194;-70
2024/01/13 06:54:23;;;;;;;66.47;33.20;;;;;;;1.95;98.08;102151.88;5074568;28;20220;-70
2024/01/13 06:56:49;;;;;;;69.17;34.57;;;;;;;1.96;97.88;102153.59;5074548;28;20191;-70
2024/01/13 06:59:16;;;;;;;70.47;35.80;;;;;;;1.96;97.51;102158.84;5074420;28;20214;-70
2024/01/13 07:01:42;;;;;;;62.73;32.40;;;;;;;1.99;96.73;102155.25;5074522;28;20205;-70
2024/01/13 07:04:09;;;;;;;65.57;34.90;;;;;;;1.83;96.63;102153.22;5074783;28;20673;-70
2024/01/13 07:06:36;;;;;;;66.27;34.17;;;;;;;1.87;96.42;102148.66;5074399;28;20171;-70
2024/01/13 07:09:04;;;;;;;74.07;35.33;;;;;;;1.83;96.57;102145.31;5074347;28;20210;-70
2024/01/13 07:11:30;;;;;;;77.17;35.20;;;;;;;1.88;96.62;102141.63;5074372;28;20741;-70
2024/01/13 07:13:57;;;;;;;76.03;33.93;;;;;;;1.94;96.49;102136.97;5074240;28;20190;-70
2024/01/13 07:16:24;;;;;;;65.33;33.77;;;;;;;1.98;96.21;102132.44;5074138;28;20194;-70
2024/01/13 07:18:50;;;;;;;70.53;34.40;;;;;;;2.03;95.82;102131.34;5074301;28;20206;-70
2024/01/13 07:21:17;;;;;;;67.00;31.83;;;;;;;2.00;95.26;102125.31;5072792;28;20631;-70
2024/01/13 07:23:43;;;;;;;62.70;32.10;;;;;;;1.96;95.04;102116.66;5074280;28;20282;-70
2024/01/13 07:26:10;;;;;;;60.47;30.00;;;;;;;1.99;95.18;102095.47;5074009;28;20179;-70
2024/01/13 07:28:37;;;;;;;69.73;31.87;;;;;;;2.03;95.04;102078.59;5073839;28;20206;-70
2024/01/13 07:31:03;;;;;;;65.13;30.53;;;;;;;2.00;95.56;102070.78;5073815;28;20214;-70
2024/01/13 07:33:30;;;;;;;62.40;31.57;;;;;;;2.05;95.21;102071.44;5074173;28;20592;-70
2024/01/13 07:35:57;;;;;;;70.20;29.97;;;;;;;2.11;95.72;102065.06;5074050;28;20189;-70
2024/01/13 07:38:24;;;;;;;67.50;31.67;;;;;;;2.04;96.15;102050.41;5073693;28;20214;-70
2024/01/13 07:40:50;;;;;;;59.17;31.23;;;;;;;2.11;95.72;102047.47;5073715;28;20191;-70
2024/01/13 07:43:17;;;;;;;55.10;30.63;;;;;;;2.18;95.69;102055.97;5072906;28;20596;-70
2024/01/13 07:45:43;;;;;;;71.57;31.70;;;;;;;2.10;96.31;102045.75;5073627;28;20202;-70
2024/01/13 07:48:09;;;;;;;54.33;29.93;;;;;;;2.20;95.93;102051.50;5073465;28;20202;-70
2024/01/13 07:50:36;;;;;;;49.90;27.93;;;;;;;2.21;95.96;102054.03;5074022;28;20208;-70
2024/01/13 07:53:03;;;;;;;58.33;28.73;;;;;;;2.32;95.70;102055.38;5073952;28;20196;-70
2024/01/13 07:55:29;;;;;;;46.07;26.23;;;;;;;2.32;95.36;102047.47;5073992;28;20171;-70
2024/01/13 07:57:56;;;;;;;52.10;26.03;;;;;;;2.26;95.70;102045.94;5073422;28;20581;-71
2024/01/13 08:00:23;;;;;;;42.90;24.60;;;;;;;2.26;96.05;102045.94;5073928;28;20183;-71
2024/01/13 08:02:50;;;;;;;42.20;24.43;;;;;;;2.25;96.05;102060.03;5073340;28;20249;-70
2024/01/13 08:05:16;;;;;;;46.00;23.80;;;;;;;2.28;95.62;102065.22;5073306;28;20191;-70
2024/01/13 08:07:43;;;;;;;43.50;22.70;;;;;;;2.23;95.96;102049.56;5073230;28;20209;-71
2024/01/13 08:10:10;;;;;;;45.13;23.60;;;;;;;2.27;95.88;102056.44;5073188;28;20202;-70
2024/01/13 08:12:36;;;;;;;37.43;22.57;;;;;;;2.32;96.13;102053.59;5073225;28;20231;-70
2024/01/13 08:15:04;;;;;;;29.83;19.83;;;;;;;2.32;96.67;102056.22;5073164;28;20197;-70
2024/01/13 08:17:30;;;;;;;42.50;21.00;;;;;;;2.29;96.70;102048.47;5073404;28;20240;-70
2024/01/13 08:19:57;;;;;;;30.80;18.63;;;;;;;2.33;97.29;102044.75;5073187;28;20190;-70
2024/01/13 08:22:24;;;;;;;31.27;18.53;;;;;;;2.37;97.09;102029.66;5073724;28;20194;-70
2024/01/13 08:24:50;;;;;;;32.27;18.43;;;;;;;2.43;96.99;102030.22;5073121;28;20186;-70
2024/01/13 08:27:17;;;;;;;30.20;18.10;;;;;;;2.49;97.34;102023.81;5073063;28;20558;-71
2024/01/13 08:29:43;;;;;;;31.07;18.77;;;;;;;2.45;97.50;102024.88;5072953;28;20277;-70
2024/01/13 08:32:10;;;;;;;34.30;19.17;;;;;;;2.45;97.57;102023.09;5073566;28;20187;-70
2024/01/13 08:34:37;;;;;;;32.87;17.97;;;;;;;2.42;97.75;102014.47;5073275;28;20178;-70
2024/01/13 08:37:05;;;;;;;35.87;18.13;;;;;;;2.50;97.85;102030.81;5073221;28;20214;-70
2024/01/13 08:39:32;;;;;;;43.57;20.83;;;;;;;2.41;97.48;102021.53;5073131;28;20211;-71
2024/01/13 08:41:58;;;;;;;39.23;20.70;;;;;;;2.40;98.10;102027.72;5073205;28;20191;-70
2024/01/13 08:44:25;;;;;;;35.07;21.83;;;;;;;2.43;98.29;102019.66;5072944;28;20186;-70
2024/01/13 08:46:51;;;;;;;39.90;23.27;;;;;;;2.40;98.03;102024.22;5072815;28;20193;-70
2024/01/13 08:49:18;;;;;;;40.03;23.43;;;;;;;2.44;98.12;102026.66;5072705;28;20210;-70
2024/01/13 08:51:44;;;;;;;43.93;23.67;;;;;;;2.44;97.85;102039.84;5054854;28;20335;-70
2024/01/13 08:54:11;;;;;;;39.77;23.30;;;;;;;2.48;97.71;102020.31;5075535;28;20209;-70
2024/01/13 08:56:38;;;;;;;47.23;25.50;;;;;;;2.42;97.82;102023.22;5077488;28;20673;-70
2024/01/13 08:59:08;;;;;;;48.10;24.73;;;;;;;2.44;97.66;102037.22;5076690;28;20249;-70
2024/01/13 09:01:35;;;;;;;43.77;24.77;;;;;;;2.40;97.84;102030.38;5077290;28;20178;-70
2024/01/13 09:04:08;;;;;;;51.17;25.80;;;;;;;2.44;97.98;102028.44;5077051;28;20690;-70
2024/01/13 09:06:36;;;;;;;50.43;26.90;;;;;;;2.46;97.73;102018.69;5077188;28;20630;-70
2024/01/13 09:09:04;;;;;;;50.23;26.03;;;;;;;2.52;97.65;102018.41;5076513;28;20215;-70
2024/01/13 09:11:31;;;;;;;46.67;25.20;;;;;;;2.53;96.89;102025.41;5076798;28;20214;-70
2024/01/13 09:14:09;;;;;;;49.13;26.70;;;;;;;2.36;97.54;102026.16;5075422;28;20266;-70
2024/01/13 09:16:36;;;;;;;59.70;29.10;;;;;;;2.39;97.54;102020.72;5076614;28;20594;-70
2024/01/13 09:19:03;;;;;;;56.97;28.60;;;;;;;2.48;96.96;102011.53;5076175;28;20301;-70
2024/01/13 09:21:29;;;;;;;62.17;29.80;;;;;;;2.47;96.70;102000.13;5076658;28;20167;-70
2024/01/13 09:24:07;;;;;;;59.17;29.40;;;;;;;2.51;96.92;102011.41;5076312;28;20622;-70
2024/01/13 09:26:44;;;;;;;59.70;29.57;;;;;;;2.56;96.72;102031.41;5076472;28;20194;-70
2024/01/13 09:29:16;;;;;;;57.03;30.13;;;;;;;2.46;96.56;102021.34;5076402;28;20210;-70
2024/01/13 09:31:45;;;;;;;63.97;31.87;;;;;;;2.41;97.48;102029.44;5076276;28;20230;-70
2024/01/13 09:34:12;;;;;;;62.10;30.70;;;;;;;2.45;96.79;102033.66;5076671;28;20197;-70
2024/01/13 09:36:41;;;;;;;62.37;30.80;;;;;;;2.41;97.00;102037.38;5076423;28;20211;-70
2024/01/13 09:39:14;;;;;;;61.60;30.97;;;;;;;2.40;97.51;102030.38;5075997;28;20217;-70
2024/01/13 09:41:46;;;;;;;62.00;30.80;;;;;;;2.39;97.58;102040.97;5075959;28;20189;-70
2024/01/13 09:44:24;;;;;;;60.13;29.87;;;;;;;2.40;97.48;102027.72;5076217;28;20175;-70
2024/01/13 09:46:54;;;;;;;58.87;29.47;;;;;;;2.37;97.36;102029.66;5076405;28;20595;-70
2024/01/13 09:49:24;;;;;;;55.23;28.37;;;;;;;2.43;97.70;102019.66;5075776;28;20203;-70
2024/01/13 09:51:52;;;;;;;59.50;28.83;;;;;;;2.38;97.78;102026.91;5076018;28;20273;-70
2024/01/13 09:54:27;;;;;;;52.10;29.10;;;;;;;2.40;97.85;102026.88;5075701;28;20233;-70
2024/01/13 09:56:55;;;;;;;54.17;29.30;;;;;;;2.41;97.73;102015.41;5076011;28;20171;-70
2024/01/13 09:59:25;;;;;;;47.27;27.93;;;;;;;2.40;98.15;102011.03;5075630;28;20738;-70
2024/01/13 10:01:53;;;;;;;47.97;27.67;;;;;;;2.37;98.30;102005.91;5075573;28;20530;-70
2024/01/13 10:04:20;;;;;;;57.67;28.93;;;;;;;2.43;98.27;102006.47;5075253;28;20183;-70
2024/01/13 10:06:48;;;;;;;57.13;29.00;;;;;;;2.48;98.22;102001.84;5075236;28;20565;-70
2024/01/13 10:09:15;;;;;;;61.43;28.37;;;;;;;2.49;98.10;101997.44;5075331;28;20263;-70
2024/01/13 10:11:59;;;;;;;71.63;29.03;;;;;;;2.46;98.22;102000.22;5075643;28;20575;-70
2024/01/13 10:14:26;;;;;;;66.40;29.63;;;;;;;2.53;97.78;101999.88;5075434;28;20557;-70
2024/01/13 10:16:52;;;;;;;59.00;29.80;;;;;;;2.46;97.89;102002.84;5075853;28;20193;-70
2024/01/13 10:19:18;;;;;;;58.50;30.73;;;;;;;2.45;98.07;102014.31;5075126;28;20345;-70
2024/01/13 10:21:45;;;;;;;57.83;28.97;;;;;;;2.43;98.82;101998.56;5075772;28;20214;-70
2024/01/13 10:24:12;;;;;;;60.23;28.77;;;;;;;2.42;98.54;101998.63;5075605;28;20654;-70
2024/01/13 10:26:39;;;;;;;54.30;29.23;;;;;;;2.42;98.76;101982.81;5075190;28;20658;-70
2024/01/13 10:29:06;;;;;;;49.83;28.80;;;;;;;2.45;98.51;101990.56;5075298;28;20708;-70
2024/01/13 10:31:33;;;;;;;56.23;28.80;;;;;;;2.35;98.89;101984.84;5075033;28;20700;-69
2024/01/13 10:34:10;;;;;;;61.93;29.30;;;;;;;2.41;98.93;101981.94;5075632;28;20175;-69
2024/01/13 10:36:38;;;;;;;67.10;31.47;;;;;;;2.45;99.09;101980.88;5075307;28;20213;-69
2024/01/13 10:39:05;;;;;;;63.03;29.73;;;;;;;2.43;98.82;101974.81;5075051;28;20621;-70
2024/01/13 10:41:34;;;;;;;62.03;31.90;;;;;;;2.45;99.05;101972.09;5075162;28;20542;-70
2024/01/13 10:44:03;;;;;;;65.07;32.23;;;;;;;2.42;98.69;101965.16;5074826;28;20194;-70
2024/01/13 10:46:33;;;;;;;63.80;30.23;;;;;;;2.42;98.91;101965.16;5074700;28;20194;-70
2024/01/13 10:49:10;;;;;;;55.70;29.80;;;;;;;2.35;99.04;101962.88;5075242;28;20282;-70
2024/01/13 10:51:47;;;;;;;61.53;29.33;;;;;;;2.40;98.89;101963.53;5075207;28;20199;-70
2024/01/13 10:54:16;;;;;;;55.43;29.30;;;;;;;2.47;99.09;101951.75;5074854;28;20186;-70
2024/01/13 10:56:43;;;;;;;60.30;29.60;;;;;;;2.45;99.24;101951.84;5074535;28;20179;-70
2024/01/13 10:59:10;;;;;;;56.93;29.50;;;;;;;2.42;99.03;101944.03;5074455;28;20266;-70
2024/01/13 11:01:38;;;;;;;58.17;29.57;;;;;;;2.37;99.39;101930.22;5074768;28;20179;-70
2024/01/13 11:04:05;;;;;;;57.33;28.77;;;;;;;2.38;98.97;101926.66;5074957;28;20207;-70
2024/01/13 11:06:31;;;;;;;59.73;29.27;;;;;;;2.37;99.03;101929.38;5074724;28;20199;-70
2024/01/13 11:09:00;;;;;;;54.67;29.93;;;;;;;2.34;99.74;101934.75;5074273;28;20199;-70
2024/01/13 11:11:32;;;;;;;60.70;30.23;;;;;;;2.41;99.16;101929.16;5074110;28;20215;-70
2024/01/13 11:14:13;;;;;;;61.67;28.57;;;;;;;2.36;99.34;101907.41;5074239;28;20656;-70
2024/01/13 11:16:44;;;;;;;47.07;26.80;;;;;;;2.41;99.47;101905.41;5073904;28;20174;-70
2024/01/13 11:19:11;;;;;;;62.30;29.63;;;;;;;2.46;98.97;101898.13;5073625;28;20214;-70